createdAt,value
2023-03-12T00:00:11.348Z,97763.31
2023-03-12T00:02:59.407Z,97766.53
2023-03-12T00:05:26.900Z,97763.31
2023-03-12T00:07:54.814Z,97765.34
2023-03-12T00:10:22.368Z,97766.97
2023-03-12T00:12:50.457Z,97766.97
2023-03-12T00:15:18.084Z,97763.31
2023-03-12T00:17:45.734Z,97771.50
2023-03-12T00:20:13.508Z,97778.66
2023-03-12T00:22:41.299Z,97774.97
2023-03-12T00:25:13.613Z,97775.16
2023-03-12T00:27:42.001Z,97780.47
2023-03-12T00:30:11.424Z,97783.38
2023-03-12T00:32:39.062Z,97786.63
2023-03-12T00:35:07.416Z,97785.00
2023-03-12T00:37:37.164Z,97783.38
2023-03-12T00:40:09.008Z,97790.31
2023-03-12T00:42:36.763Z,97790.31
2023-03-12T00:45:04.308Z,97788.69
2023-03-12T00:47:31.774Z,97797.69
2023-03-12T00:49:59.842Z,97799.34
2023-03-12T00:52:27.501Z,97806.72
2023-03-12T00:54:58.209Z,97808.31
2023-03-12T00:57:25.805Z,97815.28
2023-03-12T00:59:53.047Z,97802.19
2023-03-12T01:02:20.807Z,97809.97
2023-03-12T01:04:48.223Z,97812.63
2023-03-12T01:07:15.803Z,97809.97
2023-03-12T01:09:43.083Z,97817.34
2023-03-12T01:12:10.795Z,97812.03
2023-03-12T01:14:38.164Z,97804.03
2023-03-12T01:17:05.757Z,97805.88
2023-03-12T01:19:33.138Z,97803.44
2023-03-12T01:22:00.837Z,97793.59
2023-03-12T01:24:28.176Z,97792.78
2023-03-12T01:26:57.854Z,97788.28
2023-03-12T01:29:25.247Z,97786.66
2023-03-12T01:31:52.909Z,97792.78
2023-03-12T01:34:20.357Z,97787.47
2023-03-12T01:36:47.955Z,97793.81
2023-03-12T01:39:15.356Z,97791.16
2023-03-12T01:41:42.942Z,97797.31
2023-03-12T01:44:15.132Z,97803.63
2023-03-12T01:46:45.712Z,97795.66
2023-03-12T01:49:27.084Z,97801.19
2023-03-12T01:52:00.849Z,97803.84
2023-03-12T01:54:42.660Z,97804.69
2023-03-12T01:57:15.722Z,97809.75
2023-03-12T01:59:48.757Z,97805.50
2023-03-12T02:02:18.552Z,97812.44
2023-03-12T02:04:47.686Z,97817.38
2023-03-12T02:07:17.188Z,97814.47
2023-03-12T02:09:49.487Z,97818.19
2023-03-12T02:12:17.856Z,97823.50
2023-03-12T02:14:45.525Z,97820.84
2023-03-12T02:17:13.769Z,97823.50
2023-03-12T02:19:59.556Z,97826.34
2023-03-12T02:22:28.962Z,97823.50
2023-03-12T02:25:19.104Z,97826.78
2023-03-12T02:27:46.758Z,97827.16
2023-03-12T02:30:17.316Z,97832.28
2023-03-12T02:32:48.536Z,97839.47
2023-03-12T02:35:16.933Z,97839.47
2023-03-12T02:37:52.256Z,97843.97
2023-03-12T02:40:34.878Z,97845.78
2023-03-12T02:43:05.353Z,97846.81
2023-03-12T02:45:34.361Z,97853.78
2023-03-12T02:48:03.213Z,97852.16
2023-03-12T02:50:30.606Z,97858.28
2023-03-12T02:52:58.176Z,97860.75
2023-03-12T02:55:26.106Z,97864.41
2023-03-12T02:57:53.596Z,97865.44
2023-03-12T03:00:21.297Z,97862.78
2023-03-12T03:02:48.892Z,97864.41
2023-03-12T03:05:16.675Z,97869.13
2023-03-12T03:07:44.160Z,97868.09
2023-03-12T03:10:11.491Z,97878.75
2023-03-12T03:12:39.058Z,97881.41
2023-03-12T03:15:07.018Z,97881.41
2023-03-12T03:17:34.622Z,97884.06
2023-03-12T03:20:02.015Z,97892.03
2023-03-12T03:22:29.603Z,97892.25
2023-03-12T03:24:57.432Z,97886.94
2023-03-12T03:27:25.413Z,97889.81
2023-03-12T03:29:53.501Z,97902.06
2023-03-12T03:32:21.225Z,97902.88
2023-03-12T03:34:49.318Z,97912.91
2023-03-12T03:37:16.949Z,97910.06
2023-03-12T03:39:44.273Z,97913.75
2023-03-12T03:42:11.836Z,97912.72
2023-03-12T03:44:39.126Z,97916.41
2023-03-12T03:47:06.905Z,97918.03
2023-03-12T03:49:35.202Z,97913.13
2023-03-12T03:52:02.755Z,97923.34
2023-03-12T03:54:31.134Z,97920.06
2023-03-12T03:56:58.822Z,97925.41
2023-03-12T03:59:26.546Z,97920.06
2023-03-12T04:01:54.408Z,97936.47
2023-03-12T04:04:21.902Z,97920.50
2023-03-12T04:06:49.457Z,97921.13
2023-03-12T04:09:16.771Z,97919.47
2023-03-12T04:11:44.358Z,97923.78
2023-03-12T04:14:11.668Z,97926.44
2023-03-12T04:16:39.430Z,97932.75
2023-03-12T04:19:06.748Z,97922.13
2023-03-12T04:21:34.335Z,97922.94
2023-03-12T04:24:01.668Z,97929.09
2023-03-12T04:26:29.207Z,97925.81
2023-03-12T04:28:56.593Z,97920.50
2023-03-12T04:31:24.196Z,97928.47
2023-03-12T04:33:51.550Z,97932.75
2023-03-12T04:36:19.151Z,97938.09
2023-03-12T04:38:46.439Z,97935.63
2023-03-12T04:41:15.597Z,97932.16
2023-03-12T04:43:43.098Z,97931.13
2023-03-12T04:46:11.085Z,97943.41
2023-03-12T04:48:38.497Z,97941.78
2023-03-12T04:51:06.394Z,97941.78
2023-03-12T04:53:33.892Z,97940.13
2023-03-12T04:56:01.497Z,97944.63
2023-03-12T04:58:28.882Z,97943.81
2023-03-12T05:00:56.703Z,97945.44
2023-03-12T05:03:24.277Z,97949.94
2023-03-12T05:05:51.898Z,97949.94
2023-03-12T05:08:19.160Z,97944.03
2023-03-12T05:10:46.886Z,97949.16
2023-03-12T05:13:16.998Z,97952.81
2023-03-12T05:15:45.218Z,97951.81
2023-03-12T05:18:13.518Z,97957.31
2023-03-12T05:20:41.461Z,97961.78
2023-03-12T05:23:08.860Z,97967.97
2023-03-12T05:25:40.480Z,97968.75
2023-03-12T05:28:08.428Z,97968.75
2023-03-12T05:30:36.416Z,97977.75
2023-03-12T05:33:03.824Z,97983.91
2023-03-12T05:35:31.398Z,97989.22
2023-03-12T05:37:58.937Z,97983.06
2023-03-12T05:40:26.546Z,97987.56
2023-03-12T05:42:53.975Z,97989.22
2023-03-12T05:45:21.546Z,97990.03
2023-03-12T05:47:48.827Z,97997.00
2023-03-12T05:50:16.779Z,97992.91
2023-03-12T05:52:44.159Z,97993.72
2023-03-12T05:55:11.784Z,98000.03
2023-03-12T05:57:39.089Z,97996.38
2023-03-12T06:00:07.415Z,98003.53
2023-03-12T06:02:34.901Z,97998.41
2023-03-12T06:05:02.647Z,98004.53
2023-03-12T06:07:29.995Z,98006.38
2023-03-12T06:09:59.752Z,98005.56
2023-03-12T06:12:27.187Z,98004.72
2023-03-12T06:14:54.796Z,98010.91
2023-03-12T06:17:22.159Z,98017.03
2023-03-12T06:19:53.155Z,98022.34
2023-03-12T06:22:20.922Z,98023.16
2023-03-12T06:24:48.554Z,98026.84
2023-03-12T06:27:16.492Z,98033.38
2023-03-12T06:29:46.355Z,98035.03
2023-03-12T06:32:14.341Z,98032.38
2023-03-12T06:34:42.149Z,98039.53
2023-03-12T06:37:10.019Z,98040.53
2023-03-12T06:39:38.534Z,98037.88
2023-03-12T06:42:05.903Z,98038.69
2023-03-12T06:44:33.481Z,98038.69
2023-03-12T06:47:00.949Z,98039.53
2023-03-12T06:49:32.154Z,98041.34
2023-03-12T06:51:59.445Z,98049.31
2023-03-12T06:54:27.009Z,98052.81
2023-03-12T06:56:54.481Z,98050.34
2023-03-12T06:59:22.760Z,98054.66
2023-03-12T07:01:50.281Z,98053.03
2023-03-12T07:04:18.217Z,98053.03
2023-03-12T07:06:50.351Z,98051.38
2023-03-12T07:09:19.442Z,98051.38
2023-03-12T07:11:47.950Z,98049.31
2023-03-12T07:14:15.604Z,98053.22
2023-03-12T07:16:43.493Z,98052.22
2023-03-12T07:19:11.421Z,98047.75
2023-03-12T07:21:39.666Z,98045.06
2023-03-12T07:24:08.303Z,98047.91
2023-03-12T07:26:36.198Z,98053.22
2023-03-12T07:29:05.188Z,98053.22
2023-03-12T07:31:33.207Z,98051.59
2023-03-12T07:34:03.066Z,98064.09
2023-03-12T07:36:30.609Z,98062.66
2023-03-12T07:38:58.558Z,98066.97
2023-03-12T07:41:26.016Z,98071.47
2023-03-12T07:43:53.710Z,98062.47
2023-03-12T07:46:21.229Z,98064.75
2023-03-12T07:48:49.240Z,98070.69
2023-03-12T07:51:17.029Z,98059.19
2023-03-12T07:53:45.535Z,98062.47
2023-03-12T07:56:13.219Z,98057.97
2023-03-12T07:58:41.456Z,98057.97
2023-03-12T08:01:09.198Z,98051.63
2023-03-12T08:03:37.273Z,98057.56
2023-03-12T08:06:06.176Z,98064.50
2023-03-12T08:08:36.380Z,98059.19
2023-03-12T08:11:05.130Z,98062.47
2023-03-12T08:13:33.555Z,98060.44
2023-03-12T08:16:01.404Z,98067.41
2023-03-12T08:18:29.045Z,98069.84
2023-03-12T08:20:56.605Z,98076.41
2023-03-12T08:23:24.623Z,98077.44
2023-03-12T08:25:52.984Z,98077.63
2023-03-12T08:28:22.947Z,98091.56
2023-03-12T08:30:53.026Z,98089.13
2023-03-12T08:33:21.660Z,98088.69
2023-03-12T08:35:49.586Z,98089.50
2023-03-12T08:38:21.162Z,98083.78
2023-03-12T08:40:56.928Z,98089.91
2023-03-12T08:43:25.222Z,98091.94
2023-03-12T08:46:01.166Z,98088.25
2023-03-12T08:48:31.240Z,98094.81
2023-03-12T08:51:00.486Z,98092.75
2023-03-12T08:53:28.376Z,98081.28
2023-03-12T08:55:56.769Z,98092.75
2023-03-12T08:58:25.539Z,98089.47
2023-03-12T09:00:53.630Z,98096.88
2023-03-12T09:03:22.499Z,98110.59
2023-03-12T09:05:50.853Z,98103.63
2023-03-12T09:08:18.874Z,98104.84
2023-03-12T09:10:50.110Z,98098.50
2023-03-12T09:13:18.111Z,98106.31
2023-03-12T09:15:45.846Z,98099.31
2023-03-12T09:18:13.909Z,98104.25
2023-03-12T09:20:43.253Z,98097.69
2023-03-12T09:23:11.269Z,98096.03
2023-03-12T09:25:39.709Z,98099.75
2023-03-12T09:28:08.713Z,98105.06
2023-03-12T09:30:36.489Z,98104.66
2023-03-12T09:33:04.678Z,98105.69
2023-03-12T09:35:32.466Z,98104.03
2023-03-12T09:38:00.763Z,98099.75
2023-03-12T09:40:32.114Z,98104.03
2023-03-12T09:43:04.768Z,98105.47
2023-03-12T09:45:38.812Z,98109.34
2023-03-12T09:48:13.996Z,98099.75
2023-03-12T09:50:47.273Z,98095.25
2023-03-12T09:53:47.103Z,98101.78
2023-03-12T09:56:18.040Z,98098.09
2023-03-12T09:58:48.322Z,98094.41
2023-03-12T10:01:36.507Z,98093.63
2023-03-12T10:04:13.171Z,98092.78
2023-03-12T10:06:47.299Z,98095.44
2023-03-12T10:09:33.822Z,98092.78
2023-03-12T10:12:18.800Z,98096.03
2023-03-12T10:15:13.872Z,98097.69
2023-03-12T10:18:03.094Z,98094.19
2023-03-12T10:20:48.164Z,98094.41
2023-03-12T10:23:52.088Z,98095.66
2023-03-12T10:26:31.980Z,98092.78
2023-03-12T10:29:06.061Z,98099.31
2023-03-12T10:31:42.591Z,98096.47
2023-03-12T10:34:23.232Z,98092.78
2023-03-12T10:36:51.120Z,98092.78
2023-03-12T10:39:20.348Z,98088.28
2023-03-12T10:41:49.189Z,98090.72
2023-03-12T10:44:25.367Z,98089.72
2023-03-12T10:47:06.954Z,98092.38
2023-03-12T10:49:36.540Z,98098.50
2023-03-12T10:52:06.105Z,98103.03
2023-03-12T10:54:40.796Z,98099.31
2023-03-12T10:57:09.055Z,98092.38
2023-03-12T10:59:43.088Z,98097.69
2023-03-12T11:02:36.312Z,98092.38
2023-03-12T11:05:20.235Z,98096.28
2023-03-12T11:07:48.337Z,98096.03
2023-03-12T11:10:20.218Z,98099.31
2023-03-12T11:13:00.066Z,98096.47
2023-03-12T11:15:37.860Z,98101.59
2023-03-12T11:18:25.319Z,98098.50
2023-03-12T11:20:56.553Z,98100.97
2023-03-12T11:23:30.621Z,98103.63
2023-03-12T11:26:19.273Z,98100.97
2023-03-12T11:28:51.637Z,98099.31
2023-03-12T11:31:29.508Z,98101.38
2023-03-12T11:34:08.005Z,98107.50
2023-03-12T11:36:44.384Z,98103.03
2023-03-12T11:39:22.356Z,98106.31
2023-03-12T11:42:20.930Z,98098.31
2023-03-12T11:45:07.560Z,98098.31
2023-03-12T11:47:56.866Z,98102.22
2023-03-12T11:50:39.539Z,98097.88
2023-03-12T11:53:14.070Z,98095.41
2023-03-12T11:55:47.153Z,98100.56
2023-03-12T11:58:17.195Z,98098.31
2023-03-12T12:01:14.009Z,98093.19
2023-03-12T12:04:13.682Z,98101.34
2023-03-12T12:06:54.145Z,98098.69
2023-03-12T12:09:50.912Z,98095.84
2023-03-12T12:12:29.951Z,98097.25
2023-03-12T12:14:57.261Z,98101.78
2023-03-12T12:17:45.501Z,98091.13
2023-03-12T12:20:30.694Z,98094.19
2023-03-12T12:22:58.039Z,98089.47
2023-03-12T12:25:39.732Z,98091.72
2023-03-12T12:28:30.124Z,98091.50
2023-03-12T12:31:03.502Z,98102.78
2023-03-12T12:33:49.419Z,98104.63
2023-03-12T12:36:18.673Z,98096.00
2023-03-12T12:39:08.410Z,98092.75
2023-03-12T12:41:40.675Z,98101.75
2023-03-12T12:44:31.041Z,98090.50
2023-03-12T12:47:02.425Z,98090.09
2023-03-12T12:49:40.661Z,98096.63
2023-03-12T12:52:11.493Z,98093.56
2023-03-12T12:54:45.344Z,98099.28
2023-03-12T12:57:22.259Z,98101.31
2023-03-12T13:00:14.642Z,98090.69
2023-03-12T13:02:45.265Z,98093.94
2023-03-12T13:05:37.356Z,98093.94
2023-03-12T13:08:05.896Z,98091.91
2023-03-12T13:10:33.330Z,98090.28
2023-03-12T13:13:09.032Z,98093.97
2023-03-12T13:15:40.706Z,98100.13
2023-03-12T13:18:21.980Z,98094.56
2023-03-12T13:20:52.489Z,98091.09
2023-03-12T13:23:53.640Z,98099.53
2023-03-12T13:26:46.483Z,98085.19
2023-03-12T13:29:28.802Z,98093.97
2023-03-12T13:31:57.103Z,98094.41
2023-03-12T13:34:26.830Z,98105.06
2023-03-12T13:37:02.002Z,98100.53
2023-03-12T13:39:34.778Z,98101.34
2023-03-12T13:42:24.196Z,98097.69
2023-03-12T13:44:53.314Z,98088.03
2023-03-12T13:47:30.029Z,98089.28
2023-03-12T13:50:14.077Z,98093.59
2023-03-12T13:52:47.667Z,98098.06
2023-03-12T13:55:22.120Z,98099.94
2023-03-12T13:57:54.867Z,98103.63
2023-03-12T14:00:30.116Z,98103.81
2023-03-12T14:03:00.960Z,98107.53
2023-03-12T14:05:30.807Z,98104.88
2023-03-12T14:08:26.179Z,98105.88
2023-03-12T14:11:21.569Z,98109.59
2023-03-12T14:14:07.513Z,98120.22
2023-03-12T14:16:40.539Z,98117.34
2023-03-12T14:19:14.534Z,98104.25
2023-03-12T14:21:44.777Z,98106.31
2023-03-12T14:24:26.029Z,98113.25
2023-03-12T14:26:55.686Z,98111.63
2023-03-12T14:29:29.232Z,98120.63
2023-03-12T14:32:00.682Z,98120.63
2023-03-12T14:34:33.828Z,98124.31
2023-03-12T14:37:09.109Z,98120.00
2023-03-12T14:39:43.579Z,98128.00
2023-03-12T14:42:20.555Z,98114.69
2023-03-12T14:44:58.685Z,98122.66
2023-03-12T14:47:26.686Z,98132.31
2023-03-12T14:49:57.571Z,98135.97
2023-03-12T14:52:28.209Z,98131.69
2023-03-12T14:55:12.153Z,98131.69
2023-03-12T14:57:39.579Z,98119.41
2023-03-12T15:00:16.086Z,98119.41
2023-03-12T15:02:43.958Z,98119.41
2023-03-12T15:05:21.863Z,98123.09
2023-03-12T15:07:51.835Z,98119.00
2023-03-12T15:10:25.711Z,98113.69
2023-03-12T15:12:56.728Z,98112.84
2023-03-12T15:15:44.141Z,98107.94
2023-03-12T15:18:21.243Z,98122.88
2023-03-12T15:20:49.951Z,98123.91
2023-03-12T15:23:18.976Z,98123.72
2023-03-12T15:25:46.777Z,98126.38
2023-03-12T15:28:14.066Z,98122.28
2023-03-12T15:30:43.226Z,98109.97
2023-03-12T15:33:12.300Z,98120.63
2023-03-12T15:36:03.824Z,98112.03
2023-03-12T15:38:35.106Z,98112.03
2023-03-12T15:41:07.674Z,98116.34
2023-03-12T15:43:37.645Z,98116.53
2023-03-12T15:46:07.030Z,98106.72
2023-03-12T15:48:50.292Z,98115.72
2023-03-12T15:51:34.911Z,98122.69
2023-03-12T15:54:04.077Z,98124.72
2023-03-12T15:56:34.464Z,98119.41
2023-03-12T15:59:15.914Z,98119.41
2023-03-12T16:01:52.763Z,98129.44
2023-03-12T16:04:21.422Z,98135.78
2023-03-12T16:06:51.226Z,98128.00
2023-03-12T16:09:22.330Z,98130.84
2023-03-12T16:11:51.283Z,98125.53
2023-03-12T16:14:27.204Z,98133.53
2023-03-12T16:16:54.801Z,98126.78
2023-03-12T16:19:23.797Z,98114.50
2023-03-12T16:21:51.415Z,98117.34
2023-03-12T16:24:18.763Z,98121.06
2023-03-12T16:26:53.636Z,98124.72
2023-03-12T16:29:22.064Z,98123.28
2023-03-12T16:31:54.251Z,98126.75
2023-03-12T16:34:22.211Z,98131.28
2023-03-12T16:36:50.494Z,98146.44
2023-03-12T16:39:18.989Z,98143.97
2023-03-12T16:41:47.711Z,98150.09
2023-03-12T16:44:21.022Z,98152.13
2023-03-12T16:46:48.721Z,98139.88
2023-03-12T16:49:18.024Z,98148.84
2023-03-12T16:51:45.693Z,98153.19
2023-03-12T16:54:13.526Z,98148.84
2023-03-12T16:56:48.083Z,98152.56
2023-03-12T16:59:23.724Z,98149.91
2023-03-12T17:01:51.736Z,98149.28
2023-03-12T17:04:19.267Z,98146.00
2023-03-12T17:06:47.061Z,98135.34
2023-03-12T17:09:14.473Z,98135.34
2023-03-12T17:11:43.219Z,98138.22
2023-03-12T17:14:18.090Z,98132.06
2023-03-12T17:16:45.834Z,98130.44
2023-03-12T17:19:13.161Z,98125.13
2023-03-12T17:21:40.948Z,98121.44
2023-03-12T17:24:10.412Z,98114.50
2023-03-12T17:26:37.904Z,98103.22
2023-03-12T17:29:05.256Z,98111.22
2023-03-12T17:31:33.496Z,98109.56
2023-03-12T17:34:03.805Z,98110.38
2023-03-12T17:36:31.517Z,98117.53
2023-03-12T17:38:58.914Z,98120.19
2023-03-12T17:41:27.494Z,98107.94
2023-03-12T17:43:58.440Z,98115.91
2023-03-12T17:46:26.082Z,98115.91
2023-03-12T17:48:53.867Z,98130.22
2023-03-12T17:51:21.448Z,98126.56
2023-03-12T17:53:49.587Z,98124.91
2023-03-12T17:56:18.177Z,98118.75
2023-03-12T17:58:46.286Z,98115.28
2023-03-12T18:01:14.476Z,98114.25
2023-03-12T18:03:43.938Z,98110.78
2023-03-12T18:06:12.285Z,98103.00
2023-03-12T18:08:39.799Z,98097.91
2023-03-12T18:11:08.164Z,98091.53
2023-03-12T18:13:35.676Z,98101.38
2023-03-12T18:16:03.683Z,98097.69
2023-03-12T18:18:31.382Z,98102.38
2023-03-12T18:20:59.048Z,98111.41
2023-03-12T18:23:27.811Z,98105.03
2023-03-12T18:25:55.459Z,98111.41
2023-03-12T18:28:24.036Z,98117.34
2023-03-12T18:30:53.412Z,98108.72
2023-03-12T18:33:20.776Z,98114.06
2023-03-12T18:35:48.471Z,98117.72
2023-03-12T18:38:15.813Z,98117.72
2023-03-12T18:40:43.585Z,98123.03
2023-03-12T18:43:10.968Z,98128.34
2023-03-12T18:45:43.018Z,98117.72
2023-03-12T18:48:10.672Z,98106.28
2023-03-12T18:50:38.743Z,98095.81
2023-03-12T18:53:06.198Z,98078.84
2023-03-12T18:55:33.932Z,98079.84
2023-03-12T18:58:01.371Z,98082.53
2023-03-12T19:00:29.224Z,98087.84
2023-03-12T19:02:56.681Z,98098.47
2023-03-12T19:05:24.300Z,98100.13
2023-03-12T19:07:51.723Z,98094.19
2023-03-12T19:10:19.485Z,98093.16
2023-03-12T19:12:53.245Z,98098.69
2023-03-12T19:15:23.992Z,98103.00
2023-03-12T19:17:52.671Z,98104.84
2023-03-12T19:20:21.327Z,98081.91
2023-03-12T19:22:48.701Z,98079.25
2023-03-12T19:25:16.399Z,98085.41
2023-03-12T19:27:43.698Z,98097.88
2023-03-12T19:30:11.940Z,98094.63
2023-03-12T19:32:44.465Z,98098.91
2023-03-12T19:35:14.302Z,98087.44
2023-03-12T19:37:42.511Z,98096.44
2023-03-12T19:40:11.003Z,98100.94
2023-03-12T19:42:38.710Z,98089.28
2023-03-12T19:45:06.843Z,98100.94
2023-03-12T19:47:34.220Z,98099.31
2023-03-12T19:50:01.959Z,98101.97
2023-03-12T19:52:29.960Z,98092.34
2023-03-12T19:55:04.623Z,98092.16
2023-03-12T19:57:33.945Z,98087.63
2023-03-12T20:00:01.615Z,98089.50
2023-03-12T20:02:29.521Z,98084.34
2023-03-12T20:04:57.332Z,98080.06
2023-03-12T20:07:24.693Z,98071.06
2023-03-12T20:09:52.428Z,98070.25
2023-03-12T20:12:19.710Z,98062.47
2023-03-12T20:14:47.545Z,98061.22
2023-03-12T20:17:15.150Z,98055.09
2023-03-12T20:19:42.808Z,98060.44
2023-03-12T20:22:10.037Z,98048.97
2023-03-12T20:24:37.631Z,98035.88
2023-03-12T20:27:05.126Z,98036.69
2023-03-12T20:29:32.965Z,98035.88
2023-03-12T20:32:00.394Z,98027.88
2023-03-12T20:34:28.148Z,98026.28
2023-03-12T20:36:55.709Z,98020.94
2023-03-12T20:39:23.471Z,98010.09
2023-03-12T20:41:53.022Z,98012.97
2023-03-12T20:44:21.217Z,98010.94
2023-03-12T20:46:49.771Z,98009.28
2023-03-12T20:49:18.490Z,98007.66
2023-03-12T20:51:46.434Z,98002.09
2023-03-12T20:54:14.224Z,98002.94
2023-03-12T20:56:46.061Z,97998.63
2023-03-12T20:59:15.323Z,98009.28
2023-03-12T21:01:42.770Z,98007.66
2023-03-12T21:04:10.464Z,98006.81
2023-03-12T21:06:37.652Z,98004.34
2023-03-12T21:09:05.839Z,98002.34
2023-03-12T21:11:33.290Z,97993.72
2023-03-12T21:14:00.941Z,97985.72
2023-03-12T21:16:29.195Z,97988.38
2023-03-12T21:18:57.924Z,97982.06
2023-03-12T21:21:25.511Z,97987.38
2023-03-12T21:23:53.073Z,97993.72
2023-03-12T21:26:21.932Z,97994.53
2023-03-12T21:28:49.544Z,97995.34
2023-03-12T21:31:17.502Z,97992.91
2023-03-12T21:33:45.294Z,97984.06
2023-03-12T21:36:14.346Z,97985.13
2023-03-12T21:38:45.449Z,97997.38
2023-03-12T21:41:15.128Z,97992.06
2023-03-12T21:43:43.759Z,97988.78
2023-03-12T21:46:16.994Z,97988.78
2023-03-12T21:48:46.678Z,97976.53
2023-03-12T21:51:16.115Z,97979.19
2023-03-12T21:53:44.149Z,97981.84
2023-03-12T21:56:11.972Z,97976.53
2023-03-12T21:58:39.756Z,97971.19
2023-03-12T22:01:12.808Z,97980.19
2023-03-12T22:03:42.120Z,97980.19
2023-03-12T22:06:10.261Z,97974.25
2023-03-12T22:08:38.588Z,97971.41
2023-03-12T22:11:07.874Z,97970.59
2023-03-12T22:13:35.742Z,97964.22
2023-03-12T22:16:06.874Z,97977.75
2023-03-12T22:18:38.999Z,97970.78
2023-03-12T22:21:07.666Z,97970.59
2023-03-12T22:23:36.503Z,97971.59
2023-03-12T22:26:05.997Z,97970.78
2023-03-12T22:28:34.166Z,97965.47
2023-03-12T22:31:05.054Z,97964.66
2023-03-12T22:33:35.629Z,97962.00
2023-03-12T22:36:08.018Z,97968.34
2023-03-12T22:38:37.004Z,97978.97
2023-03-12T22:41:16.169Z,97975.47
2023-03-12T22:43:45.880Z,97968.34
2023-03-12T22:46:14.121Z,97966.69
2023-03-12T22:48:41.938Z,97959.75
2023-03-12T22:51:09.452Z,97949.13
2023-03-12T22:53:37.199Z,97961.38
2023-03-12T22:56:10.347Z,97958.09
2023-03-12T22:58:37.928Z,97970.38
2023-03-12T23:01:09.685Z,97966.06
2023-03-12T23:03:39.943Z,97973.25
2023-03-12T23:06:33.584Z,97958.09
2023-03-12T23:09:01.321Z,97966.06
2023-03-12T23:11:29.660Z,97974.06
2023-03-12T23:13:57.297Z,97961.78
2023-03-12T23:16:26.035Z,97963.41
2023-03-12T23:18:53.875Z,97961.78
2023-03-12T23:21:23.511Z,97959.75
2023-03-12T23:23:51.519Z,97963.41
2023-03-12T23:26:21.748Z,97963.63
2023-03-12T23:28:51.126Z,97958.09
2023-03-12T23:31:19.395Z,97948.69
2023-03-12T23:33:46.951Z,97962.59
2023-03-12T23:36:19.682Z,97952.16
2023-03-12T23:38:48.533Z,97961.78
2023-03-12T23:41:17.053Z,97965.47
2023-03-12T23:43:44.991Z,97978.75
2023-03-12T23:46:13.378Z,97970.78
2023-03-12T23:48:41.691Z,97969.97
2023-03-12T23:51:15.764Z,97958.53
2023-03-12T23:53:46.253Z,97959.53
2023-03-12T23:56:16.132Z,97962.19
2023-03-12T23:58:45.124Z,97965.47
